Edmonton International Airport
CYEG : now visible

Airfield :











YOU CAN JOIN US ON...

 
LOGIN :

Register | Disclaimer

   EN    FR    IT 

 









Legend :    VFR   Marginal VFR   IFR   Intensive IFR   Very Intensive IFR
Visi :
Ceiling :
>= 8 km
>= 3000ft
5 to 8 km
1000 to 3000 ft
1500m to 5 km
500 to 1000 ft
800 to 1500m
200 to 500 ft
< 800m
< 200 ft
Symbols :   Thunderstorms  Fog  Heavy snow  Heavy precipitations  Wind > 20 kt







- Airport Elevation : 2373 ft
- IATA code : YEG


CYEG - Edmonton International

CURRENT METAR :
  • 251000Z 14009KT 20SM OVC010 M00/M01 A3018 RMK SC8 VIRGA SLP254

EXPIRED METARs :
  • 250900Z 13011KT 20SM OVC015 M00/M02 A3020 RMK SC8 SLP263
  • 250800Z 14009KT 15SM BKN015 OVC019 00/M02 A3022 RMK SC7SC1 SLP269

TAF TAF CYEG
Valid from the 25 at 09:00 until the 26 at 06:00 UTC


250838Z 2509/2606 14012KT P6SM OVC015
TEMPO 2509/2514 OVC008
FM251400 13008KT P6SM OVC008
TEMPO 2514/2519 3SM BR OVC004
PROB30 2514/2519 3/4SM BR
FM251900 13008KT P6SM OVC008
TEMPO 2519/2522 BKN012
FM252200 12006KT P6SM BKN020
FM260000 15005KT P6SM SCT020 RMK NXT FCST BY 251200Z
CZEG FIR / North America



MET'MAP, your aeronautical weather chart ! - Copyright ORBIFLY December 2007 - Disclaimer

ORBIFLY MET'MAP TEAM :

Programming & Development : Alexandra Zaïnal
Concept & Development : Baudouin d'Aumeries
Co-Development & Prog : Marc-Olivier Méhu
Technical & hardware support : Manuel Goepfert

Contact : metmap@orbifly.com




SOURCES & CREDITS :

   NOAA       Earth
Advisory